Time;durP1;ratioP1;P1;durP2;ratioP2;P2;SDS_P1;SDS_P2;PMS_P1;PMS_P2;Temp;Humidity;BMP_temperature;BMP_pressure;BME280_temperature;BME280_humidity;BME280_pressure;Samples;Min_cycle;Max_cycle;Signal;HPM_P1;HPM_P2
2021/07/18 08:33:21;;;;;;;7.05;2.88;;;22.70;88.20;;;;;;5062314;28;20767;-63
2021/07/18 08:35:47;;;;;;;3.97;2.60;;;22.80;88.40;;;;;;5059722;28;20471;-65
2021/07/18 08:38:12;;;;;;;3.58;3.00;;;22.80;88.30;;;;;;5057699;28;20059;-64
2021/07/18 08:40:38;;;;;;;4.40;2.67;;;22.80;88.40;;;;;;5051260;28;20033;-64
2021/07/18 08:43:04;;;;;;;4.30;2.78;;;22.80;88.60;;;;;;5057704;28;20025;-63
2021/07/18 08:45:30;;;;;;;3.20;2.50;;;22.80;88.90;;;;;;5052212;28;20033;-64
2021/07/18 08:47:55;;;;;;;3.28;2.42;;;22.90;88.90;;;;;;5053261;28;20027;-64
2021/07/18 08:50:21;;;;;;;3.22;2.75;;;22.90;89.30;;;;;;5060776;28;20025;-64
2021/07/18 08:52:55;;;;;;;2.78;1.95;;;22.90;89.10;;;;;;5070915;28;20024;-66
2021/07/18 08:55:21;;;;;;;5.55;2.72;;;22.90;89.30;;;;;;5076737;28;20053;-63
2021/07/18 08:57:47;;;;;;;3.42;2.65;;;23.00;89.50;;;;;;5063308;28;20055;-63
2021/07/18 09:00:13;;;;;;;4.32;2.60;;;23.00;89.20;;;;;;5063753;28;20130;-64
2021/07/18 09:02:39;;;;;;;3.22;2.40;;;23.00;89.50;;;;;;5065475;28;20032;-63
2021/07/18 09:05:05;;;;;;;3.28;2.10;;;23.00;89.20;;;;;;5069357;28;20082;-63
2021/07/18 09:07:30;;;;;;;4.82;2.58;;;23.10;89.20;;;;;;5063090;28;20232;-64
2021/07/18 09:10:06;;;;;;;3.85;2.13;;;23.00;89.50;;;;;;5032230;28;20031;-65
2021/07/18 09:12:31;;;;;;;3.25;2.30;;;23.10;89.50;;;;;;5064166;28;20499;-65
2021/07/18 09:14:58;;;;;;;4.22;2.38;;;23.00;89.40;;;;;;5060090;28;20098;-67
2021/07/18 09:17:25;;;;;;;2.63;2.25;;;23.10;89.50;;;;;;5045258;28;20313;-63
2021/07/18 09:19:50;;;;;;;3.13;2.60;;;23.00;89.40;;;;;;5045678;28;20037;-62
2021/07/18 09:22:20;;;;;;;4.47;2.35;;;23.10;89.50;;;;;;5050853;28;20361;-63
2021/07/18 09:24:47;;;;;;;4.72;2.40;;;23.10;89.60;;;;;;5060151;28;20033;-65
2021/07/18 09:27:21;;;;;;;3.42;2.70;;;23.00;89.60;;;;;;5058009;28;20483;-66
2021/07/18 09:29:50;;;;;;;3.45;2.20;;;23.10;89.80;;;;;;5050028;28;20124;-64
2021/07/18 09:32:21;;;;;;;2.60;2.35;;;23.10;90.00;;;;;;5051048;28;20445;-67
2021/07/18 09:34:51;;;;;;;2.42;2.22;;;23.10;90.00;;;;;;5051550;28;20364;-63
2021/07/18 09:37:22;;;;;;;2.75;2.55;;;23.10;90.00;;;;;;5066886;28;20027;-61
2021/07/18 09:39:50;;;;;;;3.10;2.47;;;23.10;90.00;;;;;;5056223;28;20078;-66
2021/07/18 09:42:34;;;;;;;2.47;2.10;;;23.20;90.10;;;;;;5048175;28;20460;-66
2021/07/18 09:45:00;;;;;;;4.13;2.40;;;23.30;90.00;;;;;;5031305;28;20022;-68
2021/07/18 09:47:25;;;;;;;3.95;2.35;;;23.20;90.20;;;;;;5032353;28;20685;-70
2021/07/18 09:49:51;;;;;;;4.78;2.60;;;23.20;89.70;;;;;;5045590;28;20075;-66
2021/07/18 09:52:20;;;;;;;2.65;2.20;;;23.20;89.60;;;;;;5048240;28;20021;-66
2021/07/18 09:54:50;;;;;;;3.45;2.65;;;23.20;89.70;;;;;;5032336;28;20065;-64
2021/07/18 09:57:35;;;;;;;3.33;2.67;;;23.10;89.80;;;;;;5034876;28;20527;-66
2021/07/18 10:00:03;;;;;;;3.53;2.58;;;23.10;90.00;;;;;;5036496;28;20091;-66
2021/07/18 10:02:29;;;;;;;2.95;2.20;;;23.10;90.00;;;;;;5034652;28;20456;-66
2021/07/18 10:04:55;;;;;;;3.65;2.50;;;23.20;90.10;;;;;;5037279;28;20032;-64
2021/07/18 10:07:22;;;;;;;4.47;2.90;;;23.20;90.10;;;;;;5036133;28;20028;-67
2021/07/18 10:09:48;;;;;;;2.40;2.20;;;23.20;90.10;;;;;;5045701;28;20162;-67
2021/07/18 10:12:14;;;;;;;3.17;2.53;;;23.10;90.10;;;;;;5031307;28;20430;-66
2021/07/18 10:14:41;;;;;;;3.08;2.40;;;23.20;90.20;;;;;;5030187;28;20020;-67
2021/07/18 10:17:06;;;;;;;3.00;2.17;;;23.20;90.60;;;;;;5019738;28;20484;-67
2021/07/18 10:19:32;;;;;;;2.60;2.40;;;23.20;90.40;;;;;;5033984;28;20033;-70
2021/07/18 10:21:57;;;;;;;2.38;2.17;;;23.10;90.30;;;;;;5038275;28;20032;-66
2021/07/18 10:24:23;;;;;;;3.42;2.38;;;23.20;90.30;;;;;;5042700;28;20037;-71
2021/07/18 10:26:49;;;;;;;5.15;2.47;;;23.20;90.40;;;;;;5012509;28;20021;-67
2021/07/18 10:29:14;;;;;;;2.47;2.03;;;23.10;90.40;;;;;;5029488;28;20025;-65
2021/07/18 10:31:51;;;;;;;110.65;73.82;;;23.20;90.30;;;;;;5041854;28;20053;-65
2021/07/18 10:34:17;;;;;;;24.20;21.30;;;25.80;85.10;;;;;;5033449;28;20025;-69
2021/07/18 10:36:43;;;;;;;48.33;40.22;;;29.30;69.50;;;;;;5039455;28;20380;-69
2021/07/18 10:39:28;;;;;;;47.85;42.78;;;30.60;63.30;;;;;;5033200;28;20029;-64
2021/07/18 10:41:54;;;;;;;54.38;47.60;;;31.10;58.50;;;;;;5031966;28;20032;-65
2021/07/18 10:44:20;;;;;;;53.83;48.05;;;32.10;55.60;;;;;;5011590;28;20033;-66
2021/07/18 10:46:53;;;;;;;58.30;49.17;;;32.10;53.40;;;;;;5034898;28;20080;-67
2021/07/18 10:49:39;;;;;;;55.63;49.13;;;30.20;59.60;;;;;;5010285;28;20052;-62
2021/07/18 10:52:05;;;;;;;59.42;52.92;;;30.00;61.90;;;;;;5042294;28;20025;-61
2021/07/18 10:54:30;;;;;;;56.45;49.58;;;29.10;64.80;;;;;;5018895;28;20120;-62
2021/07/18 10:56:56;;;;;;;62.92;52.58;;;28.90;67.40;;;;;;5024580;28;20032;-64
2021/07/18 10:59:37;;;;;;;59.83;52.80;;;28.60;69.00;;;;;;5038667;28;20041;-67
2021/07/18 11:02:11;;;;;;;52.28;46.58;;;28.90;68.30;;;;;;5037694;28;20507;-64
2021/07/18 11:04:50;;;;;;;55.70;47.85;;;29.20;67.00;;;;;;5031457;28;20435;-62
2021/07/18 11:07:21;;;;;;;55.35;47.45;;;29.20;66.50;;;;;;5033144;28;20037;-62
2021/07/18 11:09:56;;;;;;;53.72;47.97;;;30.10;63.20;;;;;;5040161;28;20116;-67
2021/07/18 11:12:38;;;;;;;51.63;46.03;;;29.80;62.10;;;;;;5030009;28;20134;-64
2021/07/18 11:15:16;;;;;;;52.90;45.67;;;29.40;65.60;;;;;;5043089;28;20027;-64
2021/07/18 11:18:09;;;;;;;51.83;46.15;;;29.10;71.00;;;;;;5040917;28;20022;-65
2021/07/18 11:20:47;;;;;;;52.08;45.40;;;29.00;67.30;;;;;;5034304;28;20827;-65
2021/07/18 11:23:34;;;;;;;51.60;45.17;;;28.50;70.60;;;;;;5046640;28;20033;-65
2021/07/18 11:26:02;;;;;;;51.55;46.00;;;28.30;71.70;;;;;;5045905;28;20063;-65
2021/07/18 11:28:32;;;;;;;48.90;43.67;;;27.80;73.40;;;;;;5058334;28;20059;-67
2021/07/18 11:31:10;;;;;;;52.30;43.38;;;27.60;74.30;;;;;;5038538;28;20438;-64
2021/07/18 11:33:49;;;;;;;51.80;44.97;;;27.20;76.20;;;;;;5040896;28;20021;-63
2021/07/18 11:36:19;;;;;;;47.33;41.60;;;27.10;77.20;;;;;;5043824;28;20025;-65
2021/07/18 11:38:44;;;;;;;48.63;43.33;;;27.00;77.70;;;;;;5042978;28;20033;-62
2021/07/18 11:41:23;;;;;;;45.55;40.70;;;26.80;78.40;;;;;;5051759;28;20036;-64
2021/07/18 11:43:51;;;;;;;47.83;42.40;;;26.90;77.80;;;;;;5044872;28;20028;-62
2021/07/18 11:46:17;;;;;;;44.53;39.67;;;26.70;79.20;;;;;;5062598;28;20048;-64
2021/07/18 11:48:43;;;;;;;45.28;40.08;;;26.40;80.30;;;;;;5045364;28;20109;-62
2021/07/18 11:51:16;;;;;;;48.25;43.00;;;26.30;80.20;;;;;;5053171;28;20108;-62
2021/07/18 11:53:49;;;;;;;47.35;42.33;;;26.50;80.10;;;;;;5050186;28;20098;-61
2021/07/18 11:56:34;;;;;;;44.88;40.17;;;26.40;79.90;;;;;;5035453;28;20037;-63
2021/07/18 11:58:59;;;;;;;;;;;26.40;80.30;;;;;;5038882;28;20035;-62
2021/07/18 12:01:29;;;;;;;1433.32;421.42;;;26.70;79.30;;;;;;5035627;28;20262;-64
2021/07/18 12:03:54;;;;;;;416.80;236.65;;;27.20;79.00;;;;;;5049241;28;20054;-67
2021/07/18 12:06:20;;;;;;;239.60;126.55;;;25.90;82.60;;;;;;5046566;28;20503;-64
2021/07/18 12:08:46;;;;;;;220.35;116.75;;;25.20;85.20;;;;;;5034447;28;20729;-66
2021/07/18 12:11:15;;;;;;;226.90;117.55;;;24.80;87.10;;;;;;5031626;28;20049;-63
2021/07/18 12:13:43;;;;;;;213.43;110.50;;;24.60;88.00;;;;;;5029175;28;20029;-64
2021/07/18 12:16:09;;;;;;;201.73;110.95;;;24.40;89.00;;;;;;5041031;28;20025;-70
2021/07/18 12:18:43;;;;;;;191.57;105.25;;;24.20;89.60;;;;;;5042150;28;20542;-68
2021/07/18 12:21:27;;;;;;;194.82;104.28;;;24.10;90.10;;;;;;5040097;28;20426;-65
2021/07/18 12:24:16;;;;;;;182.63;101.35;;;24.00;90.30;;;;;;5036052;28;20022;-65
2021/07/18 12:26:50;;;;;;;180.50;101.35;;;23.90;90.50;;;;;;5029001;28;20036;-65
2021/07/18 12:29:15;;;;;;;189.10;98.22;;;23.90;90.60;;;;;;5043662;28;20382;-65
2021/07/18 12:31:43;;;;;;;173.20;98.35;;;23.90;90.60;;;;;;5032656;28;20073;-66
2021/07/18 12:34:09;;;;;;;173.88;93.85;;;23.90;90.70;;;;;;5031875;28;20095;-66
2021/07/18 12:36:54;;;;;;;185.80;97.10;;;23.90;90.70;;;;;;5034888;28;20075;-64
2021/07/18 12:39:20;;;;;;;171.32;95.32;;;23.90;90.70;;;;;;5034527;28;20033;-67
2021/07/18 12:41:46;;;;;;;169.98;94.68;;;23.90;90.80;;;;;;5039217;28;20391;-65
2021/07/18 12:44:12;;;;;;;159.43;89.80;;;23.90;91.00;;;;;;5037973;28;20091;-64
2021/07/18 12:46:38;;;;;;;158.48;88.95;;;23.90;90.80;;;;;;5030875;28;20026;-67
2021/07/18 12:49:10;;;;;;;162.48;88.55;;;23.80;90.90;;;;;;5040715;28;20021;-67
2021/07/18 12:51:36;;;;;;;156.02;86.93;;;23.80;91.00;;;;;;5045478;28;20033;-68
2021/07/18 12:54:02;;;;;;;156.57;85.85;;;23.70;91.00;;;;;;5031318;28;20029;-67
2021/07/18 12:56:27;;;;;;;162.88;85.05;;;23.70;91.00;;;;;;5039492;28;20434;-67
2021/07/18 12:58:53;;;;;;;159.07;86.75;;;23.50;91.00;;;;;;5042578;28;20024;-67
2021/07/18 13:01:18;;;;;;;151.48;87.53;;;23.70;91.00;;;;;;5038308;28;20431;-68
2021/07/18 13:03:45;;;;;;;150.23;83.97;;;23.70;91.00;;;;;;5050345;28;20029;-68
2021/07/18 13:06:21;;;;;;;150.45;81.18;;;23.70;91.00;;;;;;5042392;28;20094;-68
2021/07/18 13:08:48;;;;;;;155.32;84.43;;;23.70;91.00;;;;;;5044075;28;20025;-69
2021/07/18 13:11:30;;;;;;;149.63;80.32;;;23.70;91.00;;;;;;5040252;28;20021;-69
2021/07/18 13:13:56;;;;;;;137.65;77.63;;;23.70;90.90;;;;;;5032333;28;20221;-69
2021/07/18 13:16:36;;;;;;;147.77;77.47;;;23.70;90.90;;;;;;5039976;28;20096;-69
2021/07/18 13:19:12;;;;;;;142.68;77.25;;;23.80;90.90;;;;;;5028924;28;20035;-70
2021/07/18 13:21:38;;;;;;;137.73;76.80;;;23.80;91.00;;;;;;5032274;28;20041;-71
2021/07/18 13:24:04;;;;;;;138.57;74.97;;;23.80;90.90;;;;;;5035870;28;20484;-69
2021/07/18 13:26:40;;;;;;;134.93;76.22;;;23.80;90.80;;;;;;5038650;28;20369;-69
2021/07/18 13:29:21;;;;;;;134.73;75.78;;;23.80;90.80;;;;;;5040165;28;20739;-69
2021/07/18 13:31:50;;;;;;;131.13;74.85;;;23.80;90.80;;;;;;5043341;28;20551;-68
2021/07/18 13:34:19;;;;;;;131.27;74.15;;;23.90;90.80;;;;;;5035518;28;20032;-68
2021/07/18 13:36:45;;;;;;;127.93;74.80;;;23.90;90.70;;;;;;5036310;28;20032;-67
2021/07/18 13:39:12;;;;;;;136.57;74.20;;;23.90;90.70;;;;;;5032918;28;20029;-73
2021/07/18 13:41:40;;;;;;;119.75;68.97;;;23.90;90.60;;;;;;5041463;28;20483;-70
2021/07/18 13:44:08;;;;;;;121.57;70.95;;;23.90;90.60;;;;;;5042516;28;20034;-70
2021/07/18 13:46:34;;;;;;;118.20;69.05;;;23.90;90.60;;;;;;5040093;28;20078;-71
2021/07/18 13:49:00;;;;;;;119.88;68.63;;;23.90;90.60;;;;;;5037397;28;20037;-70
2021/07/18 13:51:30;;;;;;;119.78;69.93;;;24.00;90.60;;;;;;5045892;28;20052;-71
2021/07/18 13:53:57;;;;;;;127.85;70.78;;;24.00;90.60;;;;;;5035759;28;20388;-70
2021/07/18 13:56:22;;;;;;;125.43;69.85;;;24.00;90.60;;;;;;5042390;28;20228;-71
2021/07/18 13:58:48;;;;;;;123.22;68.05;;;24.10;90.60;;;;;;5038042;28;20033;-71
2021/07/18 14:01:14;;;;;;;127.03;70.13;;;24.10;90.60;;;;;;5031702;28;20022;-71
2021/07/18 14:03:39;;;;;;;116.65;68.28;;;24.10;90.50;;;;;;5029815;28;20025;-71
2021/07/18 15:12:00;;;;;;;13.75;6.50;;;24.50;86.70;;;;;;5113041;27;20327;-76
2021/07/18 15:14:26;;;;;;;12.55;7.68;;;24.40;87.70;;;;;;5061982;28;20032;-76
2021/07/18 15:16:53;;;;;;;17.85;6.95;;;24.30;90.30;;;;;;5075335;28;20428;-74
2021/07/18 15:19:18;;;;;;;10.68;7.13;;;24.40;90.00;;;;;;5072755;28;20035;-76
2021/07/18 15:21:50;;;;;;;18.02;7.97;;;24.40;90.20;;;;;;5089831;28;20036;-73
2021/07/18 15:24:15;;;;;;;15.90;7.15;;;24.40;90.30;;;;;;5088582;28;20169;-72
2021/07/18 15:26:41;;;;;;;13.18;7.20;;;24.40;90.30;;;;;;5074855;28;20101;-69
2021/07/18 15:29:12;;;;;;;14.98;7.30;;;24.40;90.20;;;;;;5089293;28;20052;-70
2021/07/18 15:31:37;;;;;;;14.35;7.07;;;24.50;90.20;;;;;;5089501;28;20390;-68
2021/07/18 15:34:06;;;;;;;10.73;6.47;;;24.50;90.10;;;;;;5106217;28;20110;-68
2021/07/18 15:36:32;;;;;;;9.88;7.10;;;24.50;90.10;;;;;;5079397;28;20194;-69
2021/07/18 15:38:58;;;;;;;11.25;6.90;;;24.50;90.00;;;;;;5079893;28;20115;-69
2021/07/18 15:41:30;;;;;;;12.30;6.70;;;24.60;90.00;;;;;;5096389;28;20043;-69
2021/07/18 15:43:57;;;;;;;9.95;6.40;;;24.60;89.90;;;;;;5096250;28;20024;-68
2021/07/18 15:46:22;;;;;;;9.73;7.07;;;24.70;89.80;;;;;;5074773;28;20032;-69
2021/07/18 15:48:48;;;;;;;12.30;7.15;;;24.70;89.70;;;;;;5096430;28;20081;-69
2021/07/18 15:51:16;;;;;;;12.85;6.65;;;24.70;89.60;;;;;;5094176;28;20122;-67
2021/07/18 15:53:42;;;;;;;10.52;6.78;;;24.70;89.50;;;;;;5072809;28;20055;-69
2021/07/18 15:56:07;;;;;;;9.43;6.97;;;24.80;89.40;;;;;;5091834;28;20748;-74
2021/07/18 15:58:33;;;;;;;8.48;6.20;;;24.80;89.40;;;;;;5090584;28;20028;-69
2021/07/18 16:00:58;;;;;;;11.50;6.75;;;24.80;89.40;;;;;;5102030;28;20020;-70
2021/07/18 16:03:27;;;;;;;13.38;6.60;;;24.80;90.00;;;;;;5095936;28;20043;-70
2021/07/18 16:05:52;;;;;;;9.85;6.35;;;24.80;89.30;;;;;;5086570;28;20081;-71
2021/07/18 16:08:18;;;;;;;9.80;6.07;;;24.90;89.30;;;;;;5090014;28;20103;-72
2021/07/18 16:10:43;;;;;;;10.45;5.93;;;24.80;89.30;;;;;;5075891;28;20064;-70
2021/07/18 16:13:09;;;;;;;9.55;5.82;;;24.80;89.30;;;;;;5068006;28;20031;-69
2021/07/18 16:15:34;;;;;;;10.88;6.53;;;24.80;89.30;;;;;;5068415;28;20048;-70
2021/07/18 16:18:00;;;;;;;10.38;6.25;;;24.80;89.40;;;;;;5069019;28;20029;-70
2021/07/18 16:20:28;;;;;;;8.50;6.15;;;24.80;89.30;;;;;;5071113;28;20610;-70
2021/07/18 16:22:54;;;;;;;7.30;6.22;;;24.80;89.40;;;;;;5037809;28;20032;-70
2021/07/18 16:25:25;;;;;;;7.03;5.85;;;24.80;89.40;;;;;;5051780;28;20025;-69
2021/07/18 16:27:53;;;;;;;6.72;5.22;;;24.80;89.30;;;;;;5041688;28;20028;-69
2021/07/18 16:30:20;;;;;;;10.57;5.90;;;24.90;89.40;;;;;;5055204;28;20124;-69
2021/07/18 16:32:46;;;;;;;8.43;6.53;;;24.80;89.40;;;;;;5052909;28;20021;-69
2021/07/18 16:35:17;;;;;;;6.97;5.75;;;24.80;89.70;;;;;;5059022;28;20077;-69
2021/07/18 16:37:45;;;;;;;8.07;5.70;;;24.70;89.70;;;;;;5054779;28;20424;-68
2021/07/18 16:40:11;;;;;;;8.95;6.07;;;24.70;89.80;;;;;;5058815;28;20025;-71
2021/07/18 16:42:37;;;;;;;8.10;5.60;;;24.60;89.90;;;;;;5036812;28;20083;-71
2021/07/18 16:45:03;;;;;;;6.65;5.63;;;24.60;90.00;;;;;;5053767;28;20160;-72
2021/07/18 16:47:28;;;;;;;6.85;5.93;;;24.60;90.00;;;;;;5059842;28;20032;-69
2021/07/18 16:49:54;;;;;;;7.88;6.10;;;24.80;90.20;;;;;;5057231;28;20511;-68
2021/07/18 16:52:21;;;;;;;8.43;6.35;;;24.60;90.20;;;;;;5054541;28;20042;-68
2021/07/18 16:54:47;;;;;;;8.23;6.18;;;24.60;90.20;;;;;;5050582;28;20415;-69
2021/07/18 16:57:13;;;;;;;9.07;5.75;;;24.50;90.20;;;;;;5060471;28;20025;-69
2021/07/18 16:59:41;;;;;;;5.93;5.32;;;24.50;90.20;;;;;;5056227;28;20020;-69
2021/07/18 17:02:07;;;;;;;7.93;6.00;;;24.90;90.30;;;;;;5055885;28;20483;-69
2021/07/18 17:04:32;;;;;;;7.40;6.05;;;24.50;90.20;;;;;;5052416;28;22197;-70
2021/07/18 17:06:59;;;;;;;7.60;5.50;;;24.50;90.20;;;;;;5052459;28;20084;-69
2021/07/18 17:09:24;;;;;;;6.30;5.53;;;24.50;90.30;;;;;;5042337;28;20423;-70
2021/07/18 17:11:50;;;;;;;6.60;5.43;;;24.50;90.30;;;;;;5075984;28;20099;-70
2021/07/18 17:14:16;;;;;;;7.00;5.95;;;24.50;90.30;;;;;;5076731;28;20126;-69
2021/07/18 17:16:43;;;;;;;8.13;6.07;;;24.50;90.40;;;;;;5069125;28;20173;-71
2021/07/18 17:19:09;;;;;;;8.05;5.75;;;24.50;90.30;;;;;;5081550;28;20036;-72
2021/07/18 17:21:34;;;;;;;7.68;5.85;;;24.50;91.00;;;;;;5075984;28;20032;-68
2021/07/18 17:24:07;;;;;;;10.05;5.95;;;24.40;91.30;;;;;;5077766;28;20049;-73
2021/07/18 17:26:36;;;;;;;8.18;5.90;;;24.80;92.00;;;;;;5079060;28;20043;-73
2021/07/18 17:29:02;;;;;;;9.38;5.72;;;24.80;92.10;;;;;;5076009;28;20034;-72
2021/07/18 17:31:27;;;;;;;6.82;5.88;;;24.50;92.10;;;;;;5074892;28;20024;-76
2021/07/18 17:33:53;;;;;;;9.88;5.78;;;24.50;92.00;;;;;;5071177;28;20043;-76
2021/07/18 17:36:21;;;;;;;7.40;6.00;;;24.50;91.90;;;;;;5071118;28;20051;-75
2021/07/18 17:38:48;;;;;;;10.50;5.47;;;24.60;92.20;;;;;;5075692;28;20434;-71
2021/07/18 17:41:13;;;;;;;8.00;6.05;;;24.50;92.50;;;;;;5078437;28;20487;-70
2021/07/18 17:43:39;;;;;;;8.13;5.18;;;24.60;92.50;;;;;;5073570;28;20033;-72
2021/07/18 17:46:08;;;;;;;8.23;5.30;;;25.30;91.90;;;;;;5072926;28;20431;-67
2021/07/18 17:48:34;;;;;;;8.02;5.18;;;25.40;91.10;;;;;;5080469;28;20046;-72
2021/07/18 17:50:59;;;;;;;7.28;5.90;;;25.70;91.00;;;;;;5078954;28;20108;-70
2021/07/18 17:53:26;;;;;;;7.93;4.97;;;26.00;90.20;;;;;;5076674;28;20475;-70
2021/07/18 17:55:52;;;;;;;25.88;8.27;;;26.30;90.20;;;;;;5080982;28;20027;-71
2021/07/18 17:58:21;;;;;;;9.07;5.60;;;26.70;91.30;;;;;;5067361;28;20518;-65
2021/07/18 18:00:46;;;;;;;6.45;5.65;;;26.90;90.10;;;;;;5069941;28;20478;-73
2021/07/18 18:03:12;;;;;;;11.38;4.78;;;27.20;88.90;;;;;;5080930;28;20043;-66
2021/07/18 18:05:37;;;;;;;9.32;5.40;;;27.40;90.10;;;;;;5084954;28;20059;-68
2021/07/18 18:08:04;;;;;;;10.75;5.45;;;27.60;90.00;;;;;;5071557;28;20490;-62
2021/07/18 18:10:29;;;;;;;8.82;5.55;;;27.80;91.00;;;;;;5074085;28;20052;-69
2021/07/18 18:12:55;;;;;;;15.20;7.50;;;28.10;92.20;;;;;;5040530;28;20041;-68
2021/07/18 18:15:20;;;;;;;68.35;52.08;;;28.20;92.40;;;;;;5043527;28;20023;-69
2021/07/18 18:17:49;;;;;;;884.05;590.33;;;28.30;92.60;;;;;;5056234;28;20029;-69
2021/07/18 18:20:15;;;;;;;1525.35;815.30;;;28.70;93.50;;;;;;5063400;28;20070;-67
2021/07/18 18:22:41;;;;;;;1999.90;999.90;;;28.90;92.50;;;;;;5060808;28;20040;-66
2021/07/18 18:25:07;;;;;;;1999.90;999.90;;;29.20;99.90;;;;;;5053006;28;20029;-74
2021/07/18 18:27:33;;;;;;;1999.90;999.90;;;29.80;91.40;;;;;;5053257;28;20033;-65
2021/07/18 18:29:58;;;;;;;1999.90;999.90;;;30.40;90.50;;;;;;5056752;28;20029;-65
2021/07/18 18:32:24;;;;;;;1479.15;899.72;;;30.70;86.50;;;;;;5061813;28;20024;-72
2021/07/18 18:34:52;;;;;;;1184.53;811.03;;;30.80;80.10;;;;;;5057567;28;20028;-72
2021/07/18 18:37:18;;;;;;;568.17;421.40;;;30.60;79.00;;;;;;5029480;28;20024;-70
2021/07/18 18:39:43;;;;;;;348.85;257.05;;;30.10;70.40;;;;;;5027208;28;20045;-69
2021/07/18 18:42:11;;;;;;;253.77;171.20;;;29.90;71.20;;;;;;5048873;28;20528;-70
2021/07/18 18:44:38;;;;;;;127.93;89.10;;;29.50;70.60;;;;;;5054720;28;20020;-70
2021/07/18 18:47:03;;;;;;;93.97;60.65;;;29.20;69.00;;;;;;5056739;28;20059;-70
2021/07/18 18:49:31;;;;;;;61.05;41.05;;;28.90;70.60;;;;;;5048716;28;20565;-69
2021/07/18 18:51:58;;;;;;;62.08;41.40;;;28.50;72.30;;;;;;5055192;28;20618;-66
2021/07/18 18:54:23;;;;;;;66.60;44.05;;;28.60;75.20;;;;;;5035547;28;20033;-66
2021/07/18 18:56:50;;;;;;;71.88;45.90;;;28.40;77.90;;;;;;5039497;28;20021;-66
2021/07/18 18:59:16;;;;;;;73.97;48.10;;;28.30;79.50;;;;;;5054727;28;20045;-66
2021/07/18 19:01:44;;;;;;;72.65;47.95;;;28.10;81.30;;;;;;5046232;28;20041;-64
2021/07/18 19:04:10;;;;;;;77.97;51.15;;;28.00;82.00;;;;;;5049167;28;20108;-66
2021/07/18 19:06:36;;;;;;;78.43;52.00;;;27.90;82.90;;;;;;5033145;28;20095;-65
2021/07/18 19:09:08;;;;;;;79.47;52.67;;;27.80;83.50;;;;;;5057130;28;20040;-67
2021/07/18 19:11:36;;;;;;;79.43;51.80;;;27.70;84.20;;;;;;5047291;28;20045;-66
2021/07/18 19:14:02;;;;;;;73.65;51.47;;;27.70;84.50;;;;;;5057870;28;20108;-67
2021/07/18 19:16:28;;;;;;;76.65;50.72;;;27.30;85.00;;;;;;5053705;28;20024;-66
2021/07/18 19:18:54;;;;;;;80.55;53.00;;;27.50;85.60;;;;;;5024140;28;20087;-66
2021/07/18 19:21:19;;;;;;;77.80;51.97;;;27.40;85.80;;;;;;5053976;28;20017;-66
2021/07/18 19:23:45;;;;;;;75.20;51.08;;;27.50;86.60;;;;;;5050369;28;20036;-66
2021/07/18 19:26:11;;;;;;;80.35;49.90;;;27.10;86.90;;;;;;5034301;28;20137;-66
2021/07/18 19:28:39;;;;;;;76.32;51.03;;;27.10;87.40;;;;;;5052417;28;20039;-66
2021/07/18 19:31:05;;;;;;;74.18;49.10;;;27.00;87.70;;;;;;5029981;28;20539;-65
2021/07/18 19:33:31;;;;;;;74.47;51.65;;;26.90;88.00;;;;;;5054948;28;20037;-67
2021/07/18 19:35:59;;;;;;;80.10;52.17;;;26.90;88.30;;;;;;5050399;28;20025;-66
2021/07/18 19:38:28;;;;;;;76.47;50.92;;;26.80;88.60;;;;;;5056835;28;20053;-65
2021/07/18 19:40:53;;;;;;;74.90;49.13;;;26.70;88.90;;;;;;5052124;28;20044;-67
2021/07/18 19:43:19;;;;;;;69.80;48.72;;;26.60;89.30;;;;;;5054896;28;20029;-67
2021/07/18 19:45:45;;;;;;;70.20;47.58;;;26.50;89.50;;;;;;5053234;28;20061;-66
2021/07/18 19:48:11;;;;;;;73.90;49.22;;;26.50;89.50;;;;;;5027439;28;20024;-67
2021/07/18 19:50:39;;;;;;;75.38;50.40;;;26.50;89.50;;;;;;5052955;28;20028;-67
2021/07/18 19:53:08;;;;;;;70.93;48.75;;;26.50;89.70;;;;;;5050404;28;20056;-66
2021/07/18 19:55:36;;;;;;;74.63;48.70;;;26.40;89.90;;;;;;5051239;28;20391;-67
2021/07/18 19:58:02;;;;;;;74.18;48.63;;;26.40;90.00;;;;;;5051404;28;20032;-66
2021/07/18 20:00:31;;;;;;;70.95;46.78;;;26.30;90.10;;;;;;5053845;28;20033;-66
2021/07/18 20:02:56;;;;;;;72.18;47.95;;;26.40;90.30;;;;;;5034004;28;20029;-67
2021/07/18 20:05:22;;;;;;;67.55;46.65;;;26.30;90.00;;;;;;5049911;28;20471;-65
2021/07/18 20:07:48;;;;;;;70.43;45.78;;;26.30;90.10;;;;;;5051956;28;20053;-65
2021/07/18 20:10:15;;;;;;;69.85;47.13;;;26.20;90.20;;;;;;5054120;28;20056;-67
2021/07/18 20:12:40;;;;;;;68.72;45.75;;;26.10;90.30;;;;;;5059656;28;20392;-66
2021/07/18 20:15:07;;;;;;;70.35;45.75;;;26.10;90.50;;;;;;5051485;28;20017;-67
2021/07/18 20:17:33;;;;;;;65.30;44.58;;;26.00;90.50;;;;;;5054085;28;20134;-68
2021/07/18 20:19:58;;;;;;;65.65;44.88;;;25.90;90.60;;;;;;5055276;28;20388;-64
2021/07/18 20:22:24;;;;;;;66.47;44.42;;;25.90;90.70;;;;;;5018462;28;20510;-66
2021/07/18 20:24:51;;;;;;;63.88;43.65;;;25.80;90.80;;;;;;5053657;28;20025;-67
2021/07/18 20:27:22;;;;;;;62.40;42.47;;;25.80;90.80;;;;;;5057215;28;20095;-67
2021/07/18 20:29:50;;;;;;;67.38;44.38;;;25.80;90.90;;;;;;5050465;28;20056;-66
2021/07/18 20:32:19;;;;;;;68.13;44.75;;;25.50;90.80;;;;;;5043862;28;20029;-66
2021/07/18 20:34:44;;;;;;;65.10;42.70;;;25.60;90.90;;;;;;5054537;28;20426;-67
2021/07/18 20:37:14;;;;;;;65.88;43.63;;;25.60;91.00;;;;;;5035014;28;20476;-65
2021/07/18 20:39:43;;;;;;;64.25;42.20;;;25.70;91.00;;;;;;5052948;28;20025;-66
2021/07/18 20:42:09;;;;;;;61.42;42.38;;;25.60;91.00;;;;;;5034128;28;20103;-66
2021/07/18 20:44:35;;;;;;;61.28;40.88;;;25.70;91.10;;;;;;5055675;28;20049;-65
2021/07/18 20:47:01;;;;;;;64.80;43.53;;;25.60;91.10;;;;;;5044523;28;20025;-67
2021/07/18 20:49:27;;;;;;;56.50;40.58;;;25.60;91.10;;;;;;5036640;28;20024;-66
2021/07/18 20:51:52;;;;;;;60.22;41.15;;;25.60;91.20;;;;;;5054050;28;20083;-68
2021/07/18 20:54:18;;;;;;;60.17;40.90;;;25.60;91.20;;;;;;5059009;28;20039;-66
2021/07/18 20:56:44;;;;;;;63.88;42.38;;;25.60;91.20;;;;;;5064269;28;20021;-65
2021/07/18 20:59:09;;;;;;;65.35;41.42;;;25.50;91.20;;;;;;5057459;28;20032;-68
2021/07/18 21:01:35;;;;;;;57.85;39.60;;;25.50;91.20;;;;;;5053851;28;20025;-67
2021/07/18 21:04:01;;;;;;;62.83;41.70;;;25.50;91.30;;;;;;5040098;28;20029;-67
2021/07/18 21:06:26;;;;;;;59.50;40.47;;;25.50;91.30;;;;;;5054618;28;20040;-66
2021/07/18 21:08:52;;;;;;;58.10;39.58;;;25.50;91.30;;;;;;5057865;28;20040;-67
